Time;durP1;ratioP1;P1;durP2;ratioP2;P2;SDS_P1;SDS_P2;PMS_P1;PMS_P2;Temp;Humidity;BMP_temperature;BMP_pressure;BME280_temperature;BME280_humidity;BME280_pressure;Samples;Min_cycle;Max_cycle;Signal;HPM_P1;HPM_P2
2021/08/20 00:01:16;;;;;;;7.18;3.40;;;;;;;15.63;90.68;100102.41;6328155;27;20044;-72
2021/08/20 00:04:17;;;;;;;6.40;3.28;;;;;;;15.64;90.90;100101.41;6339301;27;20126;-72
2021/08/20 00:07:17;;;;;;;7.15;3.13;;;;;;;15.51;91.70;100107.66;6339915;27;20139;-72
2021/08/20 00:10:18;;;;;;;5.88;3.38;;;;;;;15.53;91.66;100110.19;6358382;27;20047;-72
2021/08/20 00:13:19;;;;;;;5.20;3.28;;;;;;;15.45;92.73;100099.44;6358310;27;20032;-72
2021/08/20 00:16:20;;;;;;;4.95;3.33;;;;;;;15.43;92.25;100101.38;6323611;27;20035;-72
2021/08/20 00:19:21;;;;;;;5.25;3.15;;;;;;;15.47;92.08;100105.41;6328395;27;20043;-72
2021/08/20 00:22:22;;;;;;;4.53;3.03;;;;;;;15.56;91.66;100103.84;6311760;27;20047;-72
2021/08/20 00:25:23;;;;;;;5.70;3.03;;;;;;;15.43;92.46;100096.94;6339852;27;20094;-72
2021/08/20 00:28:24;;;;;;;6.85;3.03;;;;;;;15.35;93.43;100103.78;6339093;27;20046;-71
2021/08/20 00:31:24;;;;;;;10.43;3.15;;;;;;;15.24;94.79;100102.00;6357218;27;20404;-71
2021/08/20 00:34:26;;;;;;;5.05;2.95;;;;;;;15.21;94.30;100097.00;6339540;27;20071;-71
2021/08/20 00:37:27;;;;;;;3.92;2.92;;;;;;;15.08;93.97;100103.22;6339126;27;20035;-71
2021/08/20 00:40:28;;;;;;;7.30;2.85;;;;;;;14.98;95.03;100101.44;6337788;27;20042;-71
2021/08/20 00:43:29;;;;;;;10.00;3.40;;;;;;;15.01;93.90;100107.31;6324602;27;20379;-71
2021/08/20 00:46:30;;;;;;;6.13;2.92;;;;;;;14.87;93.68;100099.66;6356271;27;20036;-71
2021/08/20 00:49:31;;;;;;;6.32;3.25;;;;;;;14.84;92.82;100102.50;6356865;27;20175;-71
2021/08/20 00:52:32;;;;;;;8.80;3.03;;;;;;;15.06;90.23;100094.63;6339165;27;20055;-71
2021/08/20 00:55:33;;;;;;;8.50;2.90;;;;;;;15.09;90.76;100102.28;6357409;27;20050;-71
2021/08/20 00:58:35;;;;;;;3.92;2.90;;;;;;;15.13;89.58;100100.22;6304971;27;20296;-71
2021/08/20 01:01:35;;;;;;;5.93;3.17;;;;;;;15.05;89.86;100099.97;6357418;27;20513;-71
2021/08/20 01:04:37;;;;;;;4.50;3.17;;;;;;;15.33;89.81;100106.53;6355661;27;20154;-71
2021/08/20 01:07:38;;;;;;;5.77;3.00;;;;;;;15.21;88.71;100104.88;6356505;27;20477;-72
2021/08/20 01:10:39;;;;;;;5.43;3.37;;;;;;;15.44;87.92;100103.88;6356965;27;20659;-72
2021/08/20 01:13:41;;;;;;;5.05;3.20;;;;;;;15.47;86.71;100103.63;6321441;27;20278;-72
2021/08/20 01:16:42;;;;;;;6.38;3.20;;;;;;;15.61;84.88;100105.13;6357340;27;20043;-72
2021/08/20 01:19:43;;;;;;;5.25;3.10;;;;;;;15.42;86.06;100115.47;6339253;27;20109;-72
2021/08/20 01:22:44;;;;;;;7.47;3.42;;;;;;;15.31;87.71;100106.63;6357762;27;20582;-72
2021/08/20 01:25:45;;;;;;;6.30;3.28;;;;;;;15.01;89.66;100102.03;6327591;27;20039;-72
2021/08/20 01:28:46;;;;;;;8.00;3.90;;;;;;;14.88;90.04;100096.06;6357132;27;20047;-72
2021/08/20 01:31:48;;;;;;;4.95;2.90;;;;;;;14.84;89.02;100097.25;6338427;27;20050;-72
2021/08/20 01:34:49;;;;;;;5.95;3.13;;;;;;;14.82;89.81;100097.38;6356985;27;20790;-72
2021/08/20 01:37:49;;;;;;;6.53;3.75;;;;;;;14.99;89.33;100092.59;6337646;27;20050;-72
2021/08/20 01:40:51;;;;;;;8.43;3.58;;;;;;;14.93;88.77;100096.56;6356383;27;20039;-72
2021/08/20 01:43:52;;;;;;;7.88;3.47;;;;;;;14.77;90.79;100090.81;6322139;27;20043;-72
2021/08/20 01:46:53;;;;;;;4.63;3.25;;;;;;;14.58;89.32;100100.13;6337499;27;20043;-71
2021/08/20 01:49:54;;;;;;;7.88;3.58;;;;;;;14.67;87.24;100098.56;6338790;27;20176;-71
2021/08/20 01:52:54;;;;;;;4.97;3.10;;;;;;;14.61;88.07;100099.88;6361510;27;20130;-71
2021/08/20 01:55:55;;;;;;;5.32;3.42;;;;;;;14.63;88.73;100097.16;6360758;27;20047;-71
2021/08/20 01:58:58;;;;;;;8.23;3.60;;;;;;;14.65;90.39;100098.69;6341739;27;20043;-71
2021/08/20 02:01:59;;;;;;;5.50;3.60;;;;;;;14.58;90.64;100096.66;6360241;27;20060;-71
2021/08/20 02:04:59;;;;;;;5.35;3.30;;;;;;;14.46;91.15;100094.00;6330906;27;20039;-71
2021/08/20 02:08:01;;;;;;;7.43;3.42;;;;;;;14.45;92.03;100099.34;6360266;27;20478;-71
2021/08/20 02:11:01;;;;;;;5.40;3.37;;;;;;;14.44;91.73;100098.53;6360924;27;20035;-71
2021/08/20 02:14:02;;;;;;;5.80;3.50;;;;;;;14.44;89.45;100102.94;6342816;27;21225;-71
2021/08/20 02:17:03;;;;;;;4.90;3.50;;;;;;;14.46;89.36;100101.88;6344443;27;20054;-71
2021/08/20 02:20:04;;;;;;;7.50;3.58;;;;;;;14.34;91.57;100101.97;6360323;27;20047;-72
2021/08/20 02:23:05;;;;;;;5.03;3.43;;;;;;;14.22;91.48;100101.09;6360923;27;20049;-72
2021/08/20 02:26:06;;;;;;;6.13;3.95;;;;;;;14.16;91.31;100097.16;6360527;27;20043;-71
2021/08/20 02:29:07;;;;;;;8.38;3.88;;;;;;;14.11;91.13;100102.75;6341909;27;20092;-71
2021/08/20 02:32:08;;;;;;;5.20;3.38;;;;;;;14.23;90.65;100106.25;6359984;27;20405;-71
2021/08/20 02:35:09;;;;;;;10.02;3.88;;;;;;;14.17;89.01;100104.09;6340703;27;20035;-70
2021/08/20 02:38:10;;;;;;;7.50;3.97;;;;;;;14.28;87.87;100101.47;6340777;27;20087;-72
2021/08/20 02:41:11;;;;;;;6.10;3.60;;;;;;;14.24;88.55;100107.91;6340873;27;20039;-71
2021/08/20 02:44:11;;;;;;;7.00;3.75;;;;;;;14.36;89.05;100108.78;6358971;27;20044;-72
2021/08/20 02:47:12;;;;;;;5.95;3.58;;;;;;;14.50;88.51;100113.81;6359932;27;20043;-71
2021/08/20 02:50:13;;;;;;;7.15;4.00;;;;;;;14.35;89.43;100103.63;6330176;27;20044;-72
2021/08/20 02:53:15;;;;;;;6.63;3.90;;;;;;;14.35;89.71;100106.25;6360270;27;20125;-72
2021/08/20 02:56:16;;;;;;;9.73;4.15;;;;;;;14.26;89.31;100103.38;6359684;27;20055;-72
2021/08/20 02:59:16;;;;;;;7.22;4.22;;;;;;;14.21;90.97;100104.69;6339931;27;20481;-71
2021/08/20 03:02:17;;;;;;;7.00;3.80;;;;;;;14.30;90.74;100103.97;6357256;27;20036;-72
2021/08/20 03:05:18;;;;;;;5.38;3.42;;;;;;;14.16;90.78;100105.00;6341378;27;20192;-72
2021/08/20 03:08:19;;;;;;;8.52;3.58;;;;;;;14.18;90.02;100097.88;6341777;27;20047;-72
2021/08/20 03:11:20;;;;;;;6.65;3.25;;;;;;;14.17;90.68;100106.72;6341261;27;20043;-72
2021/08/20 03:14:21;;;;;;;7.80;3.25;;;;;;;14.02;92.23;100106.06;6338319;27;20497;-71
2021/08/20 03:17:22;;;;;;;6.30;3.83;;;;;;;14.02;90.77;100102.59;6342767;27;20052;-71
2021/08/20 03:20:23;;;;;;;5.90;3.78;;;;;;;14.24;89.72;100105.28;6322097;27;20039;-71
2021/08/20 03:23:23;;;;;;;5.57;3.40;;;;;;;14.09;90.77;100101.19;6329407;27;20466;-72
2021/08/20 03:26:25;;;;;;;5.35;3.22;;;;;;;14.09;90.06;100107.28;6341129;27;20050;-72
2021/08/20 03:29:25;;;;;;;6.53;3.58;;;;;;;14.07;90.02;100113.59;6340360;27;20511;-71
2021/08/20 03:32:26;;;;;;;7.60;4.07;;;;;;;14.16;90.00;100112.88;6359005;27;20088;-72
2021/08/20 03:35:27;;;;;;;12.40;3.80;;;;;;;14.34;87.28;100118.56;6358716;27;20035;-71
2021/08/20 03:38:28;;;;;;;8.63;3.95;;;;;;;14.20;89.71;100108.25;6358399;27;20035;-71
2021/08/20 03:41:28;;;;;;;9.57;4.03;;;;;;;14.02;91.01;100123.56;6357095;27;20417;-71
2021/08/20 03:44:29;;;;;;;8.48;4.00;;;;;;;13.97;87.89;100120.47;6340069;27;20038;-71
2021/08/20 03:47:30;;;;;;;7.57;3.63;;;;;;;14.01;89.42;100125.38;6357061;27;20039;-72
2021/08/20 03:50:30;;;;;;;7.57;4.13;;;;;;;14.08;91.21;100131.84;6339570;27;20047;-72
2021/08/20 03:53:31;;;;;;;6.40;3.50;;;;;;;14.03;90.91;100126.09;6323394;27;20043;-72
2021/08/20 03:56:32;;;;;;;6.78;3.95;;;;;;;13.82;91.55;100122.44;6358327;27;20556;-71
2021/08/20 03:59:33;;;;;;;10.13;4.00;;;;;;;13.91;90.19;100127.84;6338832;27;20043;-71
2021/08/20 04:02:34;;;;;;;9.35;4.30;;;;;;;13.96;89.33;100132.75;6358047;27;20099;-71
2021/08/20 04:05:34;;;;;;;8.05;3.92;;;;;;;13.83;90.95;100137.22;6339905;27;20454;-71
2021/08/20 04:08:36;;;;;;;7.60;4.10;;;;;;;14.02;90.92;100139.31;6359605;27;20047;-71
2021/08/20 04:11:36;;;;;;;5.68;3.38;;;;;;;14.05;90.86;100144.34;6357433;27;20039;-71
2021/08/20 04:14:37;;;;;;;7.65;3.58;;;;;;;14.06;90.67;100133.75;6321531;27;20488;-71
2021/08/20 04:17:38;;;;;;;4.82;3.50;;;;;;;14.18;90.71;100142.47;6338626;27;20114;-72
2021/08/20 04:20:39;;;;;;;8.88;3.70;;;;;;;14.28;89.96;100145.25;6323006;27;20038;-72
2021/08/20 04:23:39;;;;;;;6.72;3.95;;;;;;;14.33;90.40;100148.38;6322537;27;20538;-72
2021/08/20 04:26:41;;;;;;;8.40;3.58;;;;;;;14.27;91.81;100148.84;6356764;27;20477;-72
2021/08/20 04:29:41;;;;;;;9.93;4.22;;;;;;;14.39;88.77;100145.31;6358471;27;20078;-72
2021/08/20 04:32:42;;;;;;;7.60;4.10;;;;;;;14.30;88.79;100152.06;6305662;27;20396;-71
2021/08/20 04:35:43;;;;;;;6.60;3.88;;;;;;;14.46;87.80;100150.91;6326713;27;20071;-70
2021/08/20 04:38:44;;;;;;;6.80;4.03;;;;;;;14.52;89.04;100151.28;6357428;27;20048;-71
2021/08/20 04:41:45;;;;;;;6.15;4.07;;;;;;;14.69;87.34;100150.03;6339083;27;20101;-71
2021/08/20 04:44:45;;;;;;;6.28;4.25;;;;;;;14.88;86.35;100154.69;6339919;27;20470;-72
2021/08/20 04:47:46;;;;;;;7.43;4.05;;;;;;;14.88;84.79;100146.81;6357735;27;20043;-72
2021/08/20 04:50:51;;;;;;;6.30;4.10;;;;;;;14.95;81.50;100148.97;6339147;27;20043;-72
2021/08/20 04:53:51;;;;;;;10.38;4.00;;;;;;;14.96;87.15;100153.28;6339103;27;20040;-71
2021/08/20 04:56:52;;;;;;;8.43;4.25;;;;;;;15.10;84.85;100148.59;6338792;27;20050;-71
2021/08/20 04:59:53;;;;;;;7.53;3.80;;;;;;;15.23;82.57;100147.63;6338273;27;20063;-71
2021/08/20 05:02:54;;;;;;;6.70;4.10;;;;;;;15.32;83.15;100150.38;6321720;27;20066;-71
2021/08/20 05:05:55;;;;;;;7.25;3.92;;;;;;;15.39;78.41;100147.28;6338538;27;20301;-71
2021/08/20 05:08:56;;;;;;;7.85;4.68;;;;;;;15.56;80.31;100154.63;6337435;27;20053;-71
2021/08/20 05:11:56;;;;;;;9.75;4.10;;;;;;;15.61;77.28;100147.22;6321970;27;20035;-72
2021/08/20 05:14:57;;;;;;;7.03;3.70;;;;;;;15.65;81.75;100166.22;6339163;27;20054;-72
2021/08/20 05:17:58;;;;;;;7.40;3.92;;;;;;;15.71;83.19;100148.16;6356585;27;20509;-71
2021/08/20 05:20:59;;;;;;;6.88;4.43;;;;;;;15.83;82.61;100150.75;6358096;27;20043;-71
2021/08/20 05:23:59;;;;;;;7.95;4.32;;;;;;;16.01;79.40;100149.25;6306075;27;20108;-72
2021/08/20 05:27:00;;;;;;;12.15;4.40;;;;;;;16.23;78.65;100158.03;6342408;27;20513;-72
2021/08/20 05:30:01;;;;;;;12.25;4.80;;;;;;;16.43;76.97;100159.84;6362752;27;20043;-71
2021/08/20 05:33:02;;;;;;;9.13;4.28;;;;;;;16.50;78.99;100165.41;6325064;27;20041;-71
2021/08/20 05:36:03;;;;;;;9.30;4.17;;;;;;;16.55;74.15;100154.47;6326140;27;20430;-71
2021/08/20 05:39:03;;;;;;;11.80;4.50;;;;;;;16.44;75.65;100164.13;6342530;27;20087;-71
2021/08/20 05:42:05;;;;;;;6.38;4.40;;;;;;;16.68;78.07;100163.84;6324819;27;21486;-71
2021/08/20 05:45:06;;;;;;;6.97;4.53;;;;;;;16.76;76.29;100165.84;6361547;27;20614;-71
2021/08/20 05:48:08;;;;;;;7.95;4.18;;;;;;;16.84;79.82;100166.06;6342720;27;20496;-71
2021/08/20 05:51:09;;;;;;;8.07;4.43;;;;;;;16.87;74.54;100168.41;6343856;27;20039;-71
2021/08/20 05:54:09;;;;;;;6.40;4.25;;;;;;;16.87;77.26;100171.06;6342387;27;20031;-71
2021/08/20 05:57:10;;;;;;;7.75;4.20;;;;;;;17.06;76.88;100172.09;6342915;27;20104;-72
2021/08/20 06:00:11;;;;;;;7.85;4.28;;;;;;;16.98;75.50;100175.41;6359298;27;20163;-72
2021/08/20 06:03:19;;;;;;;7.38;4.55;;;;;;;17.13;75.43;100178.50;6341870;27;20071;-72
2021/08/20 06:06:20;;;;;;;6.53;3.72;;;;;;;17.24;75.06;100178.41;6360819;27;20051;-72
2021/08/20 06:09:24;;;;;;;6.60;4.03;;;;;;;17.45;76.48;100182.78;6342733;27;20039;-72
2021/08/20 06:12:27;;;;;;;6.85;4.43;;;;;;;17.59;73.58;100182.41;6341665;27;20468;-71
2021/08/20 06:15:28;;;;;;;6.95;4.18;;;;;;;17.63;73.51;100185.63;6340594;27;20039;-74
2021/08/20 06:18:28;;;;;;;9.13;3.92;;;;;;;17.79;77.21;100187.69;6342537;27;20036;-74
2021/08/20 06:21:29;;;;;;;9.68;4.30;;;;;;;17.91;74.80;100191.91;6341411;27;21518;-73
2021/08/20 06:24:30;;;;;;;7.57;3.38;;;;;;;18.03;68.68;100192.63;6359959;27;20074;-71
2021/08/20 06:27:31;;;;;;;8.43;4.13;;;;;;;18.19;71.53;100195.56;6359766;27;20045;-71
2021/08/20 06:30:32;;;;;;;6.07;3.40;;;;;;;18.24;69.81;100195.97;6340858;27;20091;-72
2021/08/20 06:33:34;;;;;;;8.15;3.83;;;;;;;18.38;67.32;100188.59;6341831;27;20043;-71
2021/08/20 06:36:35;;;;;;;8.57;4.38;;;;;;;18.47;66.45;100191.22;6339317;27;20641;-71
2021/08/20 06:39:36;;;;;;;8.17;3.40;;;;;;;18.64;70.08;100202.06;6330719;27;20039;-71
2021/08/20 06:42:37;;;;;;;7.88;3.78;;;;;;;18.80;67.25;100191.75;6360734;27;20097;-70
2021/08/20 06:45:37;;;;;;;5.38;3.72;;;;;;;18.96;68.18;100187.66;6361102;27;20482;-69
2021/08/20 06:48:38;;;;;;;5.40;3.38;;;;;;;19.07;68.85;100190.97;6339275;27;20035;-69
2021/08/20 06:51:39;;;;;;;8.33;3.80;;;;;;;19.25;61.93;100196.31;6329783;27;20050;-71
2021/08/20 06:54:40;;;;;;;6.53;3.37;;;;;;;19.29;61.23;100194.19;6341559;27;20043;-73
2021/08/20 06:57:40;;;;;;;6.28;3.53;;;;;;;19.43;62.10;100196.34;6326203;27;20504;-73
2021/08/20 07:00:43;;;;;;;6.97;3.08;;;;;;;19.62;58.95;100198.09;6360843;27;20034;-71
2021/08/20 07:03:44;;;;;;;4.53;3.27;;;;;;;19.66;61.68;100199.44;6339565;27;20091;-75
2021/08/20 07:06:45;;;;;;;5.67;3.10;;;;;;;19.72;64.65;100196.22;6341301;27;20049;-72
2021/08/20 07:09:45;;;;;;;7.87;3.00;;;;;;;19.99;58.35;100199.78;6342273;27;20100;-75
2021/08/20 07:12:46;;;;;;;3.97;2.60;;;;;;;20.06;59.96;100195.56;6341656;27;20039;-71
2021/08/20 07:15:47;;;;;;;3.93;2.60;;;;;;;20.02;60.82;100196.03;6339661;27;20050;-70
2021/08/20 07:18:48;;;;;;;4.33;2.83;;;;;;;20.39;58.83;100198.50;6324436;27;20504;-73
2021/08/20 07:21:48;;;;;;;5.50;2.90;;;;;;;20.30;58.49;100200.25;6342299;27;20042;-71
2021/08/20 07:24:49;;;;;;;6.23;3.03;;;;;;;20.25;60.53;100193.75;6341681;27;20115;-73
2021/08/20 07:27:50;;;;;;;6.63;3.00;;;;;;;20.35;59.19;100198.97;6322789;27;20040;-73
2021/08/20 07:30:51;;;;;;;6.93;2.80;;;;;;;20.35;61.02;100202.44;6359535;27;20051;-70
2021/08/20 07:33:52;;;;;;;6.53;2.87;;;;;;;20.45;59.11;100200.53;6340604;27;20287;-72
2021/08/20 07:36:53;;;;;;;3.17;2.50;;;;;;;20.83;54.90;100192.38;6359036;27;20038;-71
2021/08/20 07:39:54;;;;;;;8.40;2.80;;;;;;;21.17;52.48;100195.03;6340488;27;20460;-71
2021/08/20 07:42:54;;;;;;;5.33;2.37;;;;;;;21.03;56.54;100192.97;6340289;27;20092;-73
2021/08/20 07:45:56;;;;;;;3.77;2.50;;;;;;;21.01;54.66;100190.47;6359134;27;20135;-70
2021/08/20 07:48:57;;;;;;;3.47;2.38;;;;;;;21.13;53.66;100191.88;6340658;27;20063;-73
2021/08/20 07:51:58;;;;;;;7.27;2.43;;;;;;;21.48;50.30;100200.66;6358559;27;20058;-73
2021/08/20 07:54:59;;;;;;;4.07;2.67;;;;;;;21.24;50.06;100200.53;6358640;27;20496;-73
2021/08/20 07:58:00;;;;;;;2.53;1.90;;;;;;;21.14;49.23;100205.97;6358252;27;20114;-71
2021/08/20 08:01:01;;;;;;;3.17;2.10;;;;;;;21.53;47.99;100208.97;6329027;27;20068;-71
2021/08/20 08:04:02;;;;;;;3.83;2.40;;;;;;;21.63;48.82;100200.88;6340121;27;20084;-74
2021/08/20 08:07:03;;;;;;;7.03;2.50;;;;;;;21.76;48.34;100203.06;6358335;27;20192;-70
2021/08/20 08:10:05;;;;;;;5.50;2.37;;;;;;;21.56;50.03;100199.00;6323214;27;20069;-70
2021/08/20 08:13:05;;;;;;;4.20;1.95;;;;;;;21.56;47.86;100191.91;6338988;27;20270;-72
2021/08/20 08:16:06;;;;;;;4.47;2.50;;;;;;;21.70;48.97;100201.03;6339109;27;20040;-72
2021/08/20 08:19:08;;;;;;;5.70;2.43;;;;;;;21.75;50.17;100193.44;6322997;27;20067;-74
2021/08/20 08:22:09;;;;;;;4.22;2.20;;;;;;;21.91;49.96;100193.47;6327581;27;20031;-74
2021/08/20 08:25:10;;;;;;;3.73;2.00;;;;;;;22.03;48.50;100194.00;6339088;27;20158;-73
2021/08/20 08:28:11;;;;;;;3.65;2.20;;;;;;;22.09;46.94;100188.03;6338715;27;20405;-75
2021/08/20 08:31:12;;;;;;;3.50;2.13;;;;;;;22.09;48.65;100190.69;6338673;27;20486;-71
2021/08/20 08:34:13;;;;;;;7.93;2.60;;;;;;;21.98;51.98;100198.13;6355693;27;20044;-75
2021/08/20 08:37:14;;;;;;;3.37;1.90;;;;;;;21.93;49.07;100195.97;6355749;27;20046;-75
2021/08/20 08:40:15;;;;;;;3.77;2.00;;;;;;;21.80;49.71;100192.94;6355804;27;20053;-70
2021/08/20 08:43:17;;;;;;;3.70;2.08;;;;;;;21.79;47.46;100180.66;6338373;27;20065;-75
2021/08/20 08:46:21;;;;;;;8.35;2.17;;;;;;;22.01;45.75;100181.84;6356935;27;20047;-74
2021/08/20 08:49:23;;;;;;;3.03;2.40;;;;;;;22.38;46.10;100184.03;6355769;27;20517;-72
2021/08/20 08:52:23;;;;;;;3.60;2.40;;;;;;;22.54;43.80;100191.19;6337948;27;20039;-71
2021/08/20 08:55:24;;;;;;;3.40;2.13;;;;;;;22.74;44.35;100194.31;6359780;27;20418;-72
2021/08/20 08:58:26;;;;;;;3.57;1.90;;;;;;;22.60;42.53;100192.34;6326357;27;20134;-73
2021/08/20 09:01:32;;;;;;;7.50;2.67;;;;;;;22.54;45.43;100193.84;6361173;27;20050;-74
2021/08/20 09:04:35;;;;;;;4.35;2.55;;;;;;;22.31;49.41;100199.00;6360798;27;20176;-74
2021/08/20 09:07:37;;;;;;;3.55;1.77;;;;;;;22.47;45.12;100192.84;6320753;27;20051;-71
2021/08/20 09:10:59;;;;;;;5.25;1.90;;;;;;;22.47;47.17;100196.34;6317596;28;20075;-72
2021/08/20 09:14:00;;;;;;;4.40;2.10;;;;;;;22.99;42.68;100194.25;6335242;27;20051;-69
2021/08/20 09:17:01;;;;;;;2.70;1.57;;;;;;;22.83;42.77;100193.28;6337318;27;20032;-71
2021/08/20 09:20:37;;;;;;;6.00;2.55;;;;;;;22.99;41.08;100202.22;6337351;27;20474;-67
2021/08/20 09:23:38;;;;;;;2.30;1.80;;;;;;;22.68;45.94;100194.97;6221501;28;20124;-67
2021/08/20 09:26:39;;;;;;;8.15;3.78;;;;;;;22.55;46.46;100195.50;6318003;27;20104;-68
2021/08/20 09:30:04;;;;;;;3.40;2.00;;;;;;;22.42;47.93;100197.81;6333231;27;20047;-70
2021/08/20 09:33:12;;;;;;;3.95;2.40;;;;;;;22.41;43.70;100197.00;6337825;27;20040;-75
2021/08/20 09:36:21;;;;;;;2.20;1.65;;;;;;;22.49;40.43;100193.53;6315012;27;20056;-73
2021/08/20 09:39:26;;;;;;;6.45;2.63;;;;;;;22.42;47.01;100192.50;6334240;27;20032;-72
2021/08/20 09:42:27;;;;;;;4.10;2.03;;;;;;;22.42;47.67;100187.19;6336025;27;20123;-71
2021/08/20 09:45:28;;;;;;;9.57;2.17;;;;;;;22.37;46.63;100186.88;6335459;27;20494;-72
2021/08/20 09:48:44;;;;;;;3.03;2.00;;;;;;;22.28;50.09;100189.53;6334534;27;20063;-70
2021/08/20 09:51:48;;;;;;;4.15;1.92;;;;;;;22.23;47.82;100178.56;6334944;27;20039;-73
2021/08/20 09:54:49;;;;;;;2.30;1.65;;;;;;;22.33;45.35;100178.41;6334076;27;20412;-74
2021/08/20 09:57:50;;;;;;;4.50;1.73;;;;;;;22.54;43.08;100164.59;6335896;27;20032;-75
2021/08/20 10:00:52;;;;;;;4.77;1.83;;;;;;;23.01;42.11;100168.31;6333350;27;20131;-74
2021/08/20 10:03:55;;;;;;;2.38;1.38;;;;;;;23.13;41.84;100162.47;6333469;27;20181;-74
2021/08/20 10:06:58;;;;;;;5.15;1.60;;;;;;;23.33;41.51;100173.53;6305288;28;20601;-72
2021/08/20 10:10:01;;;;;;;5.95;1.58;;;;;;;23.65;36.09;100166.34;6307928;28;20048;-70
2021/08/20 10:13:04;;;;;;;2.50;1.35;;;;;;;23.38;43.37;100165.00;6313979;28;20039;-71
2021/08/20 10:16:07;;;;;;;1.52;1.40;;;;;;;23.27;38.26;100158.25;6308383;28;20041;-73
2021/08/20 10:19:09;;;;;;;2.30;1.50;;;;;;;23.32;38.11;100163.88;6308488;28;20040;-71
2021/08/20 10:22:10;;;;;;;2.83;1.45;;;;;;;23.53;37.85;100162.44;6306052;28;20102;-69
2021/08/20 10:25:10;;;;;;;3.10;1.40;;;;;;;23.74;37.33;100157.31;6303421;28;20487;-72
2021/08/20 10:28:13;;;;;;;2.53;1.55;;;;;;;24.01;37.06;100156.97;6279691;28;20053;-71
2021/08/20 10:31:14;;;;;;;1.70;1.25;;;;;;;24.05;39.23;100156.47;6296484;28;20063;-68
2021/08/20 10:34:30;;;;;;;3.92;1.27;;;;;;;24.45;38.72;100150.94;6296998;28;20046;-72
2021/08/20 10:37:31;;;;;;;2.78;1.80;;;;;;;24.94;37.02;100151.25;6296897;28;20415;-70
2021/08/20 10:40:32;;;;;;;2.53;1.60;;;;;;;25.08;35.70;100144.28;6297524;28;20044;-69
2021/08/20 10:44:06;;;;;;;1.85;1.50;;;;;;;25.12;35.15;100145.56;6307852;28;20093;-70
2021/08/20 10:47:08;;;;;;;1.80;1.50;;;;;;;25.59;34.04;100135.41;6309705;28;20040;-71
2021/08/20 10:50:36;;;;;;;2.88;1.38;;;;;;;25.50;32.92;100132.03;6301093;28;20049;-73
2021/08/20 10:53:48;;;;;;;3.50;1.38;;;;;;;25.41;34.94;100132.34;6295918;28;20451;-73
2021/08/20 10:56:49;;;;;;;3.05;1.70;;;;;;;25.47;34.75;100135.09;6302012;28;20408;-72
2021/08/20 10:59:49;;;;;;;3.43;1.60;;;;;;;25.46;33.10;100135.28;6324855;28;20047;-71
2021/08/20 11:02:52;;;;;;;2.03;1.30;;;;;;;25.53;35.40;100139.69;6312224;28;20075;-68
2021/08/20 11:05:53;;;;;;;7.00;1.55;;;;;;;25.96;32.45;100135.41;6304035;28;20079;-70
2021/08/20 11:08:54;;;;;;;3.00;1.60;;;;;;;26.48;33.50;100137.66;6330462;28;20482;-70
2021/08/20 11:11:55;;;;;;;2.10;1.40;;;;;;;27.03;31.39;100139.63;6330535;28;20046;-73
2021/08/20 11:15:21;;;;;;;2.30;1.48;;;;;;;27.74;30.21;100141.94;6357567;27;20043;-74
2021/08/20 11:18:45;;;;;;;3.90;1.40;;;;;;;27.70;32.13;100136.16;6355946;27;20139;-74
2021/08/20 11:21:46;;;;;;;2.35;1.42;;;;;;;28.33;32.30;100137.66;6328980;28;20079;-73
2021/08/20 11:25:20;;;;;;;1.50;1.40;;;;;;;30.67;27.41;100132.66;6347311;28;20089;-72
2021/08/20 11:28:26;;;;;;;4.20;1.50;;;;;;;32.83;24.86;100132.81;6347937;28;20428;-72
2021/08/20 11:31:26;;;;;;;3.55;1.70;;;;;;;34.22;23.69;100128.84;6329838;28;20074;-75
2021/08/20 11:34:27;;;;;;;1.98;1.30;;;;;;;35.97;20.15;100126.25;6313017;28;20047;-76
2021/08/20 11:37:28;;;;;;;2.20;1.55;;;;;;;37.76;18.83;100131.66;6329841;28;20043;-73
2021/08/20 11:40:29;;;;;;;2.92;1.30;;;;;;;39.85;17.62;100134.69;6330079;28;20078;-71
2021/08/20 11:43:34;;;;;;;1.75;1.50;;;;;;;40.18;16.25;100129.44;6347587;28;20067;-72
2021/08/20 11:46:39;;;;;;;3.55;1.40;;;;;;;42.19;14.53;100127.44;6347760;27;20054;-74
2021/08/20 11:49:39;;;;;;;3.25;1.20;;;;;;;40.51;15.02;100123.38;6349242;27;20104;-77
2021/08/20 11:52:48;;;;;;;3.45;1.42;;;;;;;35.67;21.20;100122.25;6341767;27;20044;-77
2021/08/20 11:55:50;;;;;;;3.33;1.38;;;;;;;33.34;23.14;100114.91;6335663;28;20039;-76
2021/08/20 11:58:51;;;;;;;1.85;1.42;;;;;;;32.43;23.99;100123.56;6364735;27;20060;-75
2021/08/20 12:02:01;;;;;;;1.85;1.30;;;;;;;38.49;17.53;100114.13;6353738;27;20051;-76
2021/08/20 12:05:31;;;;;;;2.63;1.50;;;;;;;41.19;14.24;100114.03;6374374;27;20042;-76
2021/08/20 12:08:32;;;;;;;;;;;;;;;43.79;13.41;100120.94;6303853;28;20058;-80
2021/08/20 12:11:33;;;;;;;1.63;1.33;;;;;;;44.45;11.62;100109.25;6310737;28;19920;-78
2021/08/20 12:14:35;;;;;;;3.47;1.45;;;;;;;43.15;13.33;100112.03;6319542;28;20048;-74
2021/08/20 12:17:36;;;;;;;2.55;1.50;;;;;;;40.71;14.18;100103.94;6320781;28;20190;-73
2021/08/20 12:20:41;;;;;;;3.33;1.30;;;;;;;40.57;15.52;100100.34;6286840;28;20052;-74
2021/08/20 12:24:01;;;;;;;1.85;1.27;;;;;;;39.67;15.99;100095.19;6317753;28;20043;-72
2021/08/20 12:27:21;;;;;;;2.45;1.17;;;;;;;41.94;14.91;100093.09;6300637;28;20522;-71
2021/08/20 12:30:26;;;;;;;2.60;1.30;;;;;;;41.30;14.23;100096.34;6300161;28;20410;-72
2021/08/20 12:33:27;;;;;;;4.82;1.60;;;;;;;39.72;14.73;100096.25;6321235;28;20482;-73
2021/08/20 12:36:28;;;;;;;2.75;1.42;;;;;;;39.82;15.82;100093.44;6321320;28;20043;-72
2021/08/20 12:39:40;;;;;;;2.38;1.48;;;;;;;40.27;15.84;100086.69;6321290;28;20101;-72
2021/08/20 12:42:48;;;;;;;1.45;1.30;;;;;;;39.23;15.66;100079.72;6321400;28;20050;-72
2021/08/20 12:46:19;;;;;;;4.28;1.40;;;;;;;36.55;18.47;100076.66;6301308;28;20055;-72
2021/08/20 12:49:19;;;;;;;3.45;1.67;;;;;;;34.50;20.56;100079.16;6286523;28;20396;-71
2021/08/20 12:52:27;;;;;;;2.15;1.30;;;;;;;34.01;20.86;100073.56;6277956;28;20044;-68
2021/08/20 12:55:31;;;;;;;2.28;1.40;;;;;;;30.12;24.29;100081.44;6296052;28;20402;-72
2021/08/20 12:58:34;;;;;;;1.92;1.55;;;;;;;29.82;24.92;100084.00;6296114;28;20136;-71
2021/08/20 13:01:37;;;;;;;2.35;1.40;;;;;;;29.98;26.08;100079.91;6296423;28;20529;-71
2021/08/20 13:04:38;;;;;;;2.92;1.48;;;;;;;30.40;28.55;100075.59;6296321;28;20048;-70
2021/08/20 13:07:39;;;;;;;2.22;1.40;;;;;;;30.26;28.57;100076.75;6310804;28;20059;-73
2021/08/20 14:29:51;;;;;;;2.63;1.50;;;;;;;27.13;38.01;100059.75;6385371;27;20378;-78
2021/08/20 14:32:52;;;;;;;36.65;2.80;;;;;;;26.74;32.40;100053.22;6333484;28;20367;-88
2021/08/20 14:37:03;;;;;;;2.97;1.55;;;;;;;26.88;31.79;100030.03;6352287;27;20411;-84
2021/08/20 14:40:05;;;;;;;3.33;1.58;;;;;;;26.89;36.54;100031.66;6324347;28;20047;-80
2021/08/20 14:43:06;;;;;;;1.67;1.58;;;;;;;26.59;33.89;100031.97;6337489;28;20044;-84
2021/08/20 14:46:07;;;;;;;1.80;1.48;;;;;;;26.38;36.66;100032.88;6296766;28;20382;-86
2021/08/20 14:49:08;;;;;;;3.22;1.65;;;;;;;26.02;32.46;100043.72;6347457;28;20040;-86
2021/08/20 14:52:10;;;;;;;2.08;1.50;;;;;;;25.92;33.35;100036.91;6313156;28;20398;-84
2021/08/20 14:55:12;;;;;;;2.53;1.63;;;;;;;25.82;36.18;100043.53;6335157;28;20046;-87
2021/08/20 14:58:12;;;;;;;;;;;;;;;25.80;33.28;100048.25;6296463;28;20032;-87
2021/08/20 15:01:13;;;;;;;3.83;1.70;;;;;;;25.74;33.87;100041.84;6325812;28;20289;-86
2021/08/20 15:04:14;;;;;;;7.50;3.47;;;;;;;25.67;35.83;100043.63;6347537;28;20035;-87
2021/08/20 15:07:15;;;;;;;5.00;2.50;;;;;;;25.52;36.00;100041.84;6318216;28;20044;-87
2021/08/20 15:10:16;;;;;;;5.65;1.98;;;;;;;25.50;35.95;100043.91;6308985;28;20039;-86
2021/08/20 15:13:16;;;;;;;3.33;2.35;;;;;;;25.50;34.92;100045.75;6313465;28;20043;-85
2021/08/20 15:16:18;;;;;;;2.93;1.70;;;;;;;25.36;36.12;100046.63;6317134;28;20048;-84
2021/08/20 15:19:19;;;;;;;4.50;1.65;;;;;;;25.50;34.73;100037.72;6314654;28;20387;-85
2021/08/20 15:22:20;;;;;;;3.33;1.90;;;;;;;25.66;35.69;100044.66;6323023;28;20486;-83
2021/08/20 15:25:22;;;;;;;2.80;1.80;;;;;;;25.60;37.79;100040.91;6301193;28;20118;-88
2021/08/20 15:28:25;;;;;;;7.80;1.63;;;;;;;25.45;35.84;100048.16;6311512;28;20059;-87